Time;durP1;ratioP1;P1;durP2;ratioP2;P2;SDS_P1;SDS_P2;PMS_P1;PMS_P2;Temp;Humidity;BMP_temperature;BMP_pressure;BME280_temperature;BME280_humidity;BME280_pressure;Samples;Min_cycle;Max_cycle;Signal;HPM_P1;HPM_P2
2022/12/06 00:01:17;;;;;;;17.80;8.35;;;0.80;99.90;;;;;;5099383;28;20028;-70
2022/12/06 00:03:46;;;;;;;18.05;8.68;;;0.80;99.90;;;;;;5099331;28;20040;-70
2022/12/06 00:06:18;;;;;;;21.02;8.85;;;0.80;99.90;;;;;;5099532;28;20027;-70
2022/12/06 00:08:46;;;;;;;17.15;8.27;;;0.80;99.90;;;;;;5100082;28;20093;-70
2022/12/06 00:11:19;;;;;;;23.10;10.77;;;0.80;99.90;;;;;;5100225;28;20049;-70
2022/12/06 00:13:52;;;;;;;20.08;8.68;;;0.80;99.90;;;;;;5099868;28;20066;-70
2022/12/06 00:16:19;;;;;;;17.02;8.07;;;0.80;99.90;;;;;;5081330;28;20111;-70
2022/12/06 00:18:46;;;;;;;18.83;9.38;;;0.80;99.90;;;;;;5099211;28;20016;-70
2022/12/06 00:21:21;;;;;;;21.48;9.98;;;0.80;99.90;;;;;;5098991;28;20125;-70
2022/12/06 00:23:59;;;;;;;19.25;9.30;;;0.80;99.90;;;;;;5099086;28;20024;-70
2022/12/06 00:26:28;;;;;;;19.55;9.65;;;0.80;99.90;;;;;;5099626;28;20086;-70
2022/12/06 00:29:00;;;;;;;20.52;10.35;;;0.80;99.90;;;;;;5099675;28;20027;-70
2022/12/06 00:31:30;;;;;;;21.90;10.50;;;0.80;99.90;;;;;;5098920;28;20028;-70
2022/12/06 00:33:57;;;;;;;19.08;8.57;;;0.80;99.90;;;;;;5098977;28;20020;-70
2022/12/06 00:36:27;;;;;;;20.63;9.70;;;0.80;99.90;;;;;;5098707;28;20021;-70
2022/12/06 00:38:54;;;;;;;16.63;8.65;;;0.80;99.90;;;;;;5098948;28;20031;-70
2022/12/06 00:41:23;;;;;;;19.15;9.13;;;0.80;99.90;;;;;;5080734;28;20500;-70
2022/12/06 00:43:51;;;;;;;17.95;8.65;;;0.80;99.90;;;;;;5098730;28;20358;-70
2022/12/06 00:46:21;;;;;;;16.70;8.65;;;0.80;99.90;;;;;;5098937;28;20431;-70
2022/12/06 00:48:49;;;;;;;17.80;8.98;;;0.80;99.90;;;;;;5099347;28;20024;-70
2022/12/06 00:51:18;;;;;;;19.70;9.07;;;0.80;99.90;;;;;;5098491;28;20050;-70
2022/12/06 00:53:47;;;;;;;17.58;8.77;;;0.80;99.90;;;;;;5098532;28;20130;-70
2022/12/06 00:56:15;;;;;;;17.98;8.45;;;0.80;99.90;;;;;;5080417;28;20078;-70
2022/12/06 00:58:42;;;;;;;19.45;8.63;;;0.80;99.90;;;;;;5099129;28;20354;-70
2022/12/06 01:01:15;;;;;;;17.80;9.52;;;0.70;99.90;;;;;;5098231;28;20028;-70
2022/12/06 01:03:44;;;;;;;19.45;9.15;;;0.80;99.90;;;;;;5075998;28;20048;-70
2022/12/06 01:06:15;;;;;;;17.38;8.70;;;0.80;99.90;;;;;;5077758;28;20409;-70
2022/12/06 01:08:43;;;;;;;17.00;9.02;;;0.70;99.90;;;;;;5078047;28;20052;-70
2022/12/06 01:11:13;;;;;;;17.88;8.60;;;0.80;99.90;;;;;;5078465;28;20052;-70
2022/12/06 01:13:42;;;;;;;19.13;8.77;;;0.80;99.90;;;;;;5078416;28;20071;-70
2022/12/06 01:16:16;;;;;;;18.33;9.20;;;0.70;99.90;;;;;;5077782;28;20063;-70
2022/12/06 01:18:44;;;;;;;17.00;8.48;;;0.80;99.90;;;;;;5077927;28;20104;-70
2022/12/06 01:21:15;;;;;;;19.50;9.07;;;0.70;99.90;;;;;;5077512;28;20021;-70
2022/12/06 01:23:43;;;;;;;18.20;8.27;;;0.70;99.90;;;;;;5076591;28;20052;-70
2022/12/06 01:26:19;;;;;;;16.38;8.20;;;0.70;99.90;;;;;;5076500;28;20025;-70
2022/12/06 01:28:47;;;;;;;19.05;8.95;;;0.70;99.90;;;;;;5077684;28;20017;-70
2022/12/06 01:31:15;;;;;;;21.67;8.23;;;0.70;99.90;;;;;;5077456;28;20103;-70
2022/12/06 01:33:43;;;;;;;16.58;7.85;;;0.70;99.90;;;;;;5077451;28;20071;-70
2022/12/06 01:36:22;;;;;;;13.98;7.55;;;0.70;99.90;;;;;;5077339;28;20025;-70
2022/12/06 01:38:59;;;;;;;13.93;7.38;;;0.70;99.90;;;;;;5077898;28;20416;-70
2022/12/06 01:41:28;;;;;;;15.95;8.13;;;0.70;99.90;;;;;;5077224;28;20025;-70
2022/12/06 01:43:56;;;;;;;14.93;7.78;;;0.70;99.90;;;;;;5076167;28;20364;-70
2022/12/06 01:46:39;;;;;;;17.17;7.65;;;0.70;99.90;;;;;;5077717;28;20405;-70
2022/12/06 01:49:21;;;;;;;13.07;6.45;;;0.70;99.90;;;;;;5076257;28;20032;-70
2022/12/06 01:51:58;;;;;;;16.60;7.85;;;0.70;99.90;;;;;;5077407;28;20024;-70
2022/12/06 01:54:25;;;;;;;;;;;0.70;99.90;;;;;;5078230;28;20021;-70
2022/12/06 01:56:54;;;;;;;14.40;7.68;;;0.70;99.90;;;;;;5077318;28;19998;-70
2022/12/06 01:59:22;;;;;;;13.82;6.78;;;0.70;99.90;;;;;;5076994;28;20163;-70
2022/12/06 02:01:50;;;;;;;13.95;8.15;;;0.70;99.90;;;;;;5077380;28;20397;-70
2022/12/06 02:04:18;;;;;;;12.07;7.13;;;0.70;99.90;;;;;;5095631;28;20064;-70
2022/12/06 02:06:47;;;;;;;16.98;7.68;;;0.70;99.90;;;;;;5097680;28;20020;-70
2022/12/06 02:09:15;;;;;;;13.43;7.03;;;0.70;99.90;;;;;;5097459;28;20023;-70
2022/12/06 02:11:43;;;;;;;12.00;6.65;;;0.80;99.90;;;;;;5097052;28;20024;-70
2022/12/06 02:14:19;;;;;;;12.27;7.10;;;0.80;99.90;;;;;;5097236;28;20038;-70
2022/12/06 02:17:09;;;;;;;13.27;7.32;;;0.70;99.90;;;;;;5096895;28;20090;-70
2022/12/06 02:19:50;;;;;;;13.27;7.15;;;0.80;99.90;;;;;;5097557;28;20031;-69
2022/12/06 02:22:42;;;;;;;12.65;7.40;;;0.80;99.90;;;;;;5078905;28;20024;-70
2022/12/06 02:25:47;;;;;;;15.25;7.78;;;0.80;99.90;;;;;;5097433;28;20308;-70
2022/12/06 02:28:36;;;;;;;15.38;7.88;;;0.80;99.90;;;;;;5097138;28;20298;-70
2022/12/06 02:31:22;;;;;;;15.27;7.55;;;0.80;99.90;;;;;;5097364;28;20367;-70
2022/12/06 02:34:17;;;;;;;15.10;7.53;;;0.70;99.90;;;;;;5096975;28;20081;-70
2022/12/06 02:37:07;;;;;;;12.93;7.60;;;0.80;99.90;;;;;;5097208;28;20115;-70
2022/12/06 02:39:53;;;;;;;11.57;7.20;;;0.80;99.90;;;;;;5096740;28;20020;-70
2022/12/06 02:42:26;;;;;;;12.23;5.88;;;0.70;99.90;;;;;;5097158;28;20423;-70
2022/12/06 02:44:58;;;;;;;10.45;6.03;;;0.80;99.90;;;;;;5096816;28;20428;-70
2022/12/06 02:47:32;;;;;;;12.55;6.60;;;0.70;99.90;;;;;;5096907;28;20035;-70
2022/12/06 02:50:03;;;;;;;10.95;6.00;;;0.70;99.90;;;;;;5096511;28;20024;-70
2022/12/06 02:52:31;;;;;;;10.82;5.85;;;0.70;99.90;;;;;;5097083;28;20039;-70
2022/12/06 02:55:00;;;;;;;11.98;6.43;;;0.80;99.90;;;;;;5078638;28;20354;-70
2022/12/06 02:57:43;;;;;;;13.23;6.53;;;0.70;99.90;;;;;;5097064;28;20051;-69
2022/12/06 03:00:31;;;;;;;11.68;5.90;;;0.80;99.90;;;;;;5096794;28;20028;-70
2022/12/06 03:03:32;;;;;;;11.23;6.47;;;0.70;99.90;;;;;;5096660;28;20047;-70
2022/12/06 03:05:59;;;;;;;11.73;5.97;;;0.70;99.90;;;;;;5078454;28;20016;-70
2022/12/06 03:08:40;;;;;;;12.38;5.75;;;0.70;99.90;;;;;;5078630;28;20031;-70
2022/12/06 03:11:08;;;;;;;17.42;6.32;;;0.70;99.90;;;;;;5096928;28;20141;-70
2022/12/06 03:14:02;;;;;;;12.27;6.10;;;0.70;99.90;;;;;;5078824;28;20023;-70
2022/12/06 03:16:52;;;;;;;13.02;6.22;;;0.70;99.90;;;;;;5096212;28;20038;-70
2022/12/06 03:19:27;;;;;;;10.20;5.60;;;0.70;99.90;;;;;;5097714;28;20217;-70
2022/12/06 03:22:05;;;;;;;9.98;5.45;;;0.70;99.90;;;;;;5078189;28;20032;-69
2022/12/06 03:24:36;;;;;;;10.23;5.50;;;0.70;99.90;;;;;;5096246;28;20013;-69
2022/12/06 03:27:17;;;;;;;9.07;5.40;;;0.70;99.90;;;;;;5097103;28;20044;-69
2022/12/06 03:29:53;;;;;;;10.02;5.88;;;0.70;99.90;;;;;;5100845;28;20013;-70
2022/12/06 03:32:25;;;;;;;11.13;5.88;;;0.70;99.90;;;;;;5100079;28;20066;-70
2022/12/06 03:34:55;;;;;;;9.13;5.05;;;0.70;99.90;;;;;;5100535;28;20024;-70
2022/12/06 03:37:27;;;;;;;9.45;5.70;;;0.70;99.90;;;;;;5100503;28;20404;-69
2022/12/06 03:40:03;;;;;;;9.38;5.05;;;0.70;99.90;;;;;;5100650;28;20320;-70
2022/12/06 03:42:31;;;;;;;8.35;5.35;;;0.70;99.90;;;;;;5099752;28;20053;-70
2022/12/06 03:45:00;;;;;;;9.10;5.53;;;0.80;99.90;;;;;;5099895;28;20071;-70
2022/12/06 03:47:50;;;;;;;11.10;5.82;;;0.70;99.90;;;;;;5099790;28;20351;-70
2022/12/06 03:50:30;;;;;;;11.52;5.85;;;0.70;99.90;;;;;;5099894;28;20024;-70
2022/12/06 03:53:00;;;;;;;4.35;2.78;;;0.70;99.90;;;;;;5099713;28;20515;-70
2022/12/06 03:55:28;;;;;;;8.30;4.75;;;0.80;99.90;;;;;;5099623;28;20024;-70
2022/12/06 03:57:55;;;;;;;8.55;4.97;;;0.80;99.90;;;;;;5099771;28;20024;-70
2022/12/06 04:00:22;;;;;;;8.55;4.72;;;0.80;99.90;;;;;;5100147;28;20316;-70
2022/12/06 04:02:49;;;;;;;10.40;5.50;;;0.80;99.90;;;;;;5099523;28;20044;-70
2022/12/06 04:05:17;;;;;;;10.65;5.30;;;0.80;99.90;;;;;;5099998;28;20048;-70
2022/12/06 04:07:45;;;;;;;9.57;5.57;;;0.80;99.90;;;;;;5099708;28;20016;-70
2022/12/06 04:10:12;;;;;;;11.65;6.30;;;0.80;99.90;;;;;;5099365;28;20408;-70
2022/12/06 04:15:26;;;;;;;12.07;6.57;;;0.70;99.90;;;;;;5099569;28;20370;-70
2022/12/06 04:23:43;;;;;;;11.50;6.45;;;0.70;99.90;;;;;;5099764;28;20359;-70
2022/12/06 04:26:16;;;;;;;12.85;6.22;;;0.70;99.90;;;;;;5099627;28;20020;-69
2022/12/06 04:39:47;;;;;;;12.37;6.97;;;0.80;99.90;;;;;;5099312;28;20035;-70
2022/12/06 04:45:00;;;;;;;15.60;7.03;;;0.80;99.90;;;;;;5098758;28;20150;-70
2022/12/06 04:47:28;;;;;;;14.70;8.18;;;0.80;99.90;;;;;;5098854;28;20031;-70
2022/12/06 04:49:56;;;;;;;14.23;7.20;;;0.80;99.90;;;;;;5098436;28;20039;-70
2022/12/06 04:52:23;;;;;;;15.73;7.72;;;0.80;99.90;;;;;;5099151;28;20024;-69
2022/12/06 04:54:50;;;;;;;14.95;7.30;;;0.80;99.90;;;;;;5098426;28;20034;-69
2022/12/06 04:57:18;;;;;;;11.98;7.50;;;0.80;99.90;;;;;;5099220;28;20028;-70
2022/12/06 04:59:48;;;;;;;11.25;6.97;;;0.80;99.90;;;;;;5080475;28;20093;-70
2022/12/06 05:02:16;;;;;;;14.15;7.88;;;0.80;99.90;;;;;;5098662;28;20028;-70
2022/12/06 05:04:43;;;;;;;12.82;7.07;;;0.80;99.90;;;;;;5098299;28;20024;-70
2022/12/06 05:07:12;;;;;;;14.00;6.90;;;0.80;99.90;;;;;;5098801;28;20107;-70
2022/12/06 05:09:40;;;;;;;17.38;7.45;;;0.80;99.90;;;;;;5098281;28;20367;-70
2022/12/06 05:12:07;;;;;;;10.30;6.00;;;0.80;99.90;;;;;;5080216;28;20328;-70
2022/12/06 05:14:34;;;;;;;11.57;7.03;;;0.80;99.90;;;;;;5098114;28;20024;-70
2022/12/06 05:17:02;;;;;;;10.98;6.93;;;0.80;99.90;;;;;;5080081;28;20020;-70
2022/12/06 05:19:30;;;;;;;14.00;5.38;;;0.80;99.90;;;;;;5098741;28;20016;-70
2022/12/06 05:21:57;;;;;;;12.02;6.93;;;0.80;99.90;;;;;;5097826;28;20024;-70
2022/12/06 05:24:25;;;;;;;12.18;6.90;;;0.80;99.90;;;;;;5098464;28;20401;-70
2022/12/06 05:26:52;;;;;;;12.80;6.75;;;0.80;99.90;;;;;;5097858;28;20025;-70
2022/12/06 05:29:20;;;;;;;9.38;5.47;;;0.80;99.90;;;;;;5098399;28;20016;-70
2022/12/06 05:31:47;;;;;;;10.27;6.18;;;0.80;99.90;;;;;;5079772;28;20069;-70
2022/12/06 05:34:14;;;;;;;9.18;5.65;;;0.80;99.90;;;;;;5079788;28;20024;-70
2022/12/06 05:36:44;;;;;;;9.82;5.60;;;0.80;99.90;;;;;;5079621;28;20328;-69
2022/12/06 05:39:12;;;;;;;11.23;6.25;;;0.80;99.90;;;;;;5079753;28;20031;-70
2022/12/06 05:41:40;;;;;;;12.55;6.63;;;0.80;99.90;;;;;;5097526;28;20039;-70
2022/12/06 05:44:12;;;;;;;11.27;6.47;;;0.80;99.90;;;;;;5097577;28;20012;-70
2022/12/06 05:46:39;;;;;;;11.32;5.93;;;0.80;99.90;;;;;;5098023;28;20312;-70
2022/12/06 05:49:06;;;;;;;10.80;6.55;;;0.80;99.90;;;;;;5097572;28;20099;-70
2022/12/06 05:51:35;;;;;;;8.95;5.53;;;0.80;99.90;;;;;;5078878;28;20431;-70
2022/12/06 05:54:05;;;;;;;9.50;5.70;;;0.80;99.90;;;;;;5097399;28;20028;-70
2022/12/06 05:56:33;;;;;;;11.15;5.88;;;0.80;99.90;;;;;;5097631;28;20495;-70
2022/12/06 05:59:02;;;;;;;9.82;5.65;;;0.80;99.90;;;;;;5097459;28;20446;-70
2022/12/06 06:01:29;;;;;;;10.75;5.53;;;0.80;99.90;;;;;;5097191;28;20048;-70
2022/12/06 06:03:57;;;;;;;7.97;5.03;;;0.80;99.90;;;;;;5075756;28;20044;-70
2022/12/06 06:06:25;;;;;;;8.77;5.20;;;0.80;99.90;;;;;;5076883;28;20070;-70
2022/12/06 06:08:52;;;;;;;7.70;5.07;;;0.80;99.90;;;;;;5077008;28;20409;-70
2022/12/06 06:11:20;;;;;;;7.97;4.55;;;0.80;99.90;;;;;;5077073;28;20048;-70
2022/12/06 06:13:47;;;;;;;9.95;4.95;;;0.80;99.90;;;;;;5077330;28;20020;-69
2022/12/06 06:16:15;;;;;;;6.55;3.60;;;0.90;99.90;;;;;;5075617;28;20024;-70
2022/12/06 06:18:42;;;;;;;10.00;5.93;;;0.80;99.90;;;;;;5075513;28;20029;-70
2022/12/06 06:21:11;;;;;;;14.10;5.63;;;0.80;99.90;;;;;;5077033;28;20420;-70
2022/12/06 06:23:39;;;;;;;11.05;5.78;;;0.80;99.90;;;;;;5076747;28;20056;-69
2022/12/06 06:26:10;;;;;;;10.07;5.88;;;0.80;99.90;;;;;;5077178;28;20020;-70
2022/12/06 06:28:38;;;;;;;20.45;11.02;;;0.80;99.90;;;;;;5077342;28;20095;-70
2022/12/06 06:31:07;;;;;;;12.82;6.05;;;0.90;99.90;;;;;;5076571;28;20116;-70
2022/12/06 06:33:35;;;;;;;13.05;6.35;;;0.90;99.90;;;;;;5077166;28;20056;-70
2022/12/06 06:36:02;;;;;;;10.98;5.53;;;0.90;99.90;;;;;;5075417;28;20067;-70
2022/12/06 06:38:30;;;;;;;12.88;5.97;;;0.90;99.90;;;;;;5077253;28;20031;-70
2022/12/06 06:41:02;;;;;;;10.55;5.50;;;0.90;99.90;;;;;;5076495;28;20031;-70
2022/12/06 06:43:29;;;;;;;9.65;5.68;;;0.90;99.90;;;;;;5076958;28;20032;-70
2022/12/06 06:45:59;;;;;;;12.60;5.30;;;0.90;99.90;;;;;;5076352;28;20082;-70
2022/12/06 06:48:30;;;;;;;10.77;6.28;;;0.90;99.90;;;;;;5076479;28;20028;-70
2022/12/06 06:51:08;;;;;;;11.68;5.93;;;0.90;99.90;;;;;;5076345;28;20107;-70
2022/12/06 06:53:37;;;;;;;11.13;5.65;;;0.90;99.90;;;;;;5077096;28;20033;-70
2022/12/06 06:56:05;;;;;;;10.25;6.65;;;0.90;99.90;;;;;;5076893;28;20021;-70
2022/12/06 06:58:32;;;;;;;10.35;5.75;;;0.90;99.90;;;;;;5076642;28;20020;-70
2022/12/06 07:01:05;;;;;;;11.60;6.00;;;0.90;99.90;;;;;;5076321;28;20432;-70
2022/12/06 07:03:33;;;;;;;11.20;5.38;;;0.90;99.90;;;;;;5077931;28;20079;-70
2022/12/06 07:06:09;;;;;;;10.30;5.72;;;0.90;99.90;;;;;;5080187;28;20021;-69
2022/12/06 07:08:37;;;;;;;;;;;0.90;99.90;;;;;;5081332;28;20103;-72
2022/12/06 07:11:05;;;;;;;8.82;4.55;;;1.00;99.90;;;;;;5079140;28;19908;-72
2022/12/06 07:13:33;;;;;;;9.38;4.95;;;1.00;99.90;;;;;;5079489;28;20086;-72
2022/12/06 07:16:03;;;;;;;8.10;5.07;;;1.00;99.90;;;;;;5080104;28;20029;-70
2022/12/06 07:18:31;;;;;;;10.13;5.20;;;1.00;99.90;;;;;;5079794;28;20332;-70
2022/12/06 07:21:07;;;;;;;9.48;4.82;;;1.00;99.90;;;;;;5078891;28;20078;-72
2022/12/06 07:23:35;;;;;;;10.32;4.43;;;1.10;99.90;;;;;;5080139;28;20112;-78
2022/12/06 07:26:05;;;;;;;7.05;4.35;;;1.10;99.90;;;;;;5078790;28;20020;-75
2022/12/06 07:28:36;;;;;;;7.53;3.88;;;1.10;99.90;;;;;;5080491;28;20054;-72
2022/12/06 07:31:15;;;;;;;11.75;4.72;;;1.10;99.90;;;;;;5080890;28;20017;-71
2022/12/06 07:33:43;;;;;;;7.70;4.32;;;1.20;99.90;;;;;;5080170;28;20338;-76
2022/12/06 07:36:12;;;;;;;10.98;4.47;;;1.20;99.90;;;;;;5078579;28;20328;-77
2022/12/06 07:38:39;;;;;;;7.60;4.05;;;1.20;99.90;;;;;;5079195;28;20021;-72
2022/12/06 07:46:42;;;;;;;9.70;5.45;;;1.20;99.90;;;;;;5079535;28;20048;-73
2022/12/06 07:49:10;;;;;;;8.82;4.70;;;1.20;99.90;;;;;;5079523;28;20016;-72
2022/12/06 07:51:38;;;;;;;9.15;4.53;;;1.20;99.90;;;;;;5079382;28;20024;-73
2022/12/06 07:54:06;;;;;;;7.55;4.43;;;1.20;99.90;;;;;;5079945;28;20024;-73
2022/12/06 07:56:33;;;;;;;7.28;4.95;;;1.20;99.90;;;;;;5079620;28;20025;-74
2022/12/06 07:59:01;;;;;;;8.43;4.18;;;1.20;99.90;;;;;;5079576;28;20028;-76
2022/12/06 08:01:28;;;;;;;8.95;4.15;;;1.20;99.90;;;;;;5079165;28;20024;-75
2022/12/06 08:03:58;;;;;;;9.43;4.03;;;1.20;99.90;;;;;;5094031;28;20040;-74
2022/12/06 08:06:26;;;;;;;8.07;4.30;;;1.20;99.90;;;;;;5099520;28;20412;-73
2022/12/06 08:08:53;;;;;;;9.07;4.57;;;1.20;99.90;;;;;;5099885;28;20069;-74
2022/12/06 08:11:21;;;;;;;9.70;4.72;;;1.20;99.90;;;;;;5099395;28;20425;-74
2022/12/06 08:13:49;;;;;;;8.35;4.72;;;1.20;99.90;;;;;;5080980;28;20042;-74
2022/12/06 08:16:16;;;;;;;22.35;9.15;;;1.20;99.90;;;;;;5099586;28;20097;-75
2022/12/06 08:18:44;;;;;;;9.02;4.38;;;1.20;99.90;;;;;;5081397;28;20027;-72
2022/12/06 08:21:12;;;;;;;7.43;4.18;;;1.20;99.90;;;;;;5081131;28;20048;-73
2022/12/06 08:23:39;;;;;;;10.07;4.30;;;1.20;99.90;;;;;;5099070;28;20036;-72
2022/12/06 08:26:11;;;;;;;10.15;4.15;;;1.20;99.90;;;;;;5099317;28;20020;-72
2022/12/06 08:28:38;;;;;;;9.43;5.10;;;1.20;99.90;;;;;;5099467;28;20016;-72
2022/12/06 08:31:13;;;;;;;9.40;5.30;;;1.30;99.90;;;;;;5099019;28;20383;-71
2022/12/06 08:33:41;;;;;;;7.97;4.60;;;1.30;99.90;;;;;;5098945;28;20100;-72
2022/12/06 08:36:18;;;;;;;10.20;5.45;;;1.30;99.90;;;;;;5098784;28;20024;-72
2022/12/06 08:38:47;;;;;;;9.88;5.65;;;1.30;99.90;;;;;;5098988;28;20056;-73
2022/12/06 08:44:02;;;;;;;12.73;5.22;;;1.30;99.90;;;;;;5099066;28;20336;-69
2022/12/06 08:46:30;;;;;;;10.48;5.60;;;1.40;99.90;;;;;;5099236;28;20020;-70
2022/12/06 08:48:58;;;;;;;14.32;6.00;;;1.40;99.90;;;;;;5099335;28;20024;-71
2022/12/06 08:51:25;;;;;;;15.52;5.78;;;1.40;99.90;;;;;;5098705;28;20027;-72
2022/12/06 08:53:54;;;;;;;18.73;5.32;;;1.40;99.90;;;;;;5098538;28;20020;-72
2022/12/06 08:56:22;;;;;;;27.60;9.52;;;1.40;99.90;;;;;;5099413;28;20370;-72
2022/12/06 08:58:51;;;;;;;20.67;6.18;;;1.40;99.90;;;;;;5098593;28;20431;-72
2022/12/06 09:01:24;;;;;;;14.63;5.53;;;1.50;99.90;;;;;;5098624;28;20111;-72
2022/12/06 09:03:52;;;;;;;14.40;6.38;;;1.50;99.90;;;;;;5098124;28;20032;-72
2022/12/06 09:06:20;;;;;;;23.75;11.10;;;1.50;99.90;;;;;;5098297;28;20019;-69
2022/12/06 09:08:48;;;;;;;22.48;7.80;;;1.60;99.90;;;;;;5098216;28;20027;-69
2022/12/06 09:11:17;;;;;;;19.92;6.97;;;1.60;99.90;;;;;;5098875;28;20020;-69
2022/12/06 09:13:45;;;;;;;13.23;6.75;;;1.60;99.90;;;;;;5098172;28;20048;-68
2022/12/06 09:16:19;;;;;;;14.07;6.85;;;1.60;99.90;;;;;;5080566;28;20423;-69
2022/12/06 09:18:47;;;;;;;15.55;6.85;;;1.60;99.90;;;;;;5098591;28;20103;-69
2022/12/06 09:21:21;;;;;;;12.10;5.85;;;1.70;99.90;;;;;;5098614;28;20016;-69
2022/12/06 09:23:48;;;;;;;13.75;6.03;;;1.70;99.90;;;;;;5098654;28;20436;-69
2022/12/06 09:26:16;;;;;;;15.85;7.10;;;1.70;99.90;;;;;;5096404;28;20024;-69
2022/12/06 09:28:48;;;;;;;12.80;6.05;;;1.70;99.90;;;;;;5081268;28;20077;-69
2022/12/06 09:31:16;;;;;;;13.05;6.18;;;1.70;99.90;;;;;;5097747;28;20470;-72
2022/12/06 09:33:44;;;;;;;13.05;5.38;;;1.70;99.90;;;;;;5097967;28;20020;-69
2022/12/06 09:36:21;;;;;;;17.55;6.82;;;1.70;99.90;;;;;;5097930;28;20074;-69
2022/12/06 09:39:10;;;;;;;17.15;6.65;;;1.70;99.90;;;;;;5098335;28;20051;-72
2022/12/06 09:42:10;;;;;;;17.73;5.93;;;1.70;99.90;;;;;;5098107;28;20426;-68
2022/12/06 09:44:43;;;;;;;14.13;6.32;;;1.70;99.90;;;;;;5098111;28;20420;-75
2022/12/06 09:47:33;;;;;;;12.35;7.47;;;1.70;99.90;;;;;;5098105;28;20105;-76
2022/12/06 09:50:07;;;;;;;17.55;6.95;;;1.80;99.90;;;;;;5097390;28;20145;-69
2022/12/06 09:52:53;;;;;;;29.95;8.10;;;1.70;99.90;;;;;;5098122;28;20024;-69
2022/12/06 09:55:45;;;;;;;19.73;7.68;;;1.80;99.90;;;;;;5097939;28;20094;-71
2022/12/06 09:58:34;;;;;;;19.45;7.40;;;1.80;99.90;;;;;;5079268;28;20111;-68
2022/12/06 10:01:23;;;;;;;20.58;8.02;;;1.80;99.90;;;;;;5097557;28;20024;-68
2022/12/06 10:04:18;;;;;;;18.70;8.02;;;1.90;99.90;;;;;;5097244;28;20062;-68
2022/12/06 10:07:13;;;;;;;16.63;7.80;;;2.00;99.90;;;;;;5097236;28;20343;-69
2022/12/06 10:10:10;;;;;;;19.90;8.68;;;2.00;99.90;;;;;;4996165;28;20327;-69
2022/12/06 10:12:50;;;;;;;15.82;8.27;;;2.10;99.90;;;;;;5097516;28;20024;-70
2022/12/06 10:15:38;;;;;;;17.60;10.30;;;2.10;99.90;;;;;;5097594;28;20020;-71
2022/12/06 10:18:34;;;;;;;13.57;6.32;;;2.20;99.90;;;;;;5097572;28;20099;-71
2022/12/06 10:21:28;;;;;;;13.95;7.40;;;2.20;99.90;;;;;;5097150;28;20095;-71
2022/12/06 10:24:25;;;;;;;16.70;7.68;;;2.20;99.90;;;;;;5097627;28;20052;-71
2022/12/06 10:26:59;;;;;;;12.55;6.20;;;2.20;99.90;;;;;;5078943;28;20130;-70
2022/12/06 10:29:50;;;;;;;14.30;7.22;;;2.30;99.90;;;;;;5097389;28;20048;-70
2022/12/06 10:32:42;;;;;;;19.05;7.18;;;2.30;99.90;;;;;;5097334;28;20309;-68
2022/12/06 10:35:16;;;;;;;17.50;7.00;;;2.30;99.90;;;;;;5097296;28;20016;-73
2022/12/06 10:37:59;;;;;;;18.25;7.88;;;2.40;99.90;;;;;;5097062;28;20104;-72
2022/12/06 10:40:49;;;;;;;16.33;7.25;;;2.40;99.90;;;;;;5097017;28;20028;-71
2022/12/06 10:43:36;;;;;;;15.85;7.15;;;2.40;99.90;;;;;;5096806;28;20020;-72
2022/12/06 10:49:27;;;;;;;17.17;7.07;;;2.40;99.90;;;;;;5097006;28;20049;-71
2022/12/06 10:52:13;;;;;;;17.17;7.60;;;2.40;99.90;;;;;;5096753;28;20016;-70
2022/12/06 10:55:09;;;;;;;18.05;8.27;;;2.50;99.90;;;;;;5078670;28;20052;-72
2022/12/06 10:57:54;;;;;;;15.45;7.35;;;2.50;99.90;;;;;;5097180;28;20024;-72
2022/12/06 11:00:35;;;;;;;15.63;6.97;;;2.60;99.90;;;;;;5078520;28;20036;-71
2022/12/06 11:03:21;;;;;;;17.17;7.90;;;2.60;99.90;;;;;;5088823;28;20432;-71
2022/12/06 11:06:02;;;;;;;18.58;7.70;;;2.70;99.90;;;;;;5096367;28;20363;-72
2022/12/06 11:08:48;;;;;;;14.68;7.88;;;2.70;99.90;;;;;;5096444;28;20095;-72
2022/12/06 11:11:29;;;;;;;17.65;8.95;;;2.70;99.90;;;;;;5096955;28;20024;-70
2022/12/06 11:14:33;;;;;;;18.30;8.20;;;2.70;99.90;;;;;;5097097;28;20048;-68
2022/12/06 11:17:07;;;;;;;16.33;7.50;;;2.70;99.90;;;;;;5096394;28;20098;-72
2022/12/06 11:19:48;;;;;;;19.77;8.93;;;2.70;99.90;;;;;;5096312;28;20028;-71
2022/12/06 11:22:34;;;;;;;16.02;8.10;;;2.70;99.90;;;;;;5078498;28;20119;-72
2022/12/06 11:25:24;;;;;;;17.83;8.70;;;2.70;99.90;;;;;;5096247;28;20073;-72
2022/12/06 11:27:59;;;;;;;16.98;8.00;;;2.70;99.90;;;;;;5078361;28;20054;-71
2022/12/06 11:30:28;;;;;;;20.13;8.63;;;2.70;99.90;;;;;;5096274;28;20031;-71
2022/12/06 11:32:55;;;;;;;19.25;9.48;;;2.70;99.90;;;;;;5095784;28;20394;-70
2022/12/06 11:35:26;;;;;;;18.63;9.98;;;2.70;99.90;;;;;;5078221;28;20111;-72
2022/12/06 11:38:04;;;;;;;23.98;11.63;;;2.70;99.90;;;;;;5096765;28;20066;-72
2022/12/06 11:40:41;;;;;;;20.42;9.02;;;2.70;99.90;;;;;;5077430;28;20065;-70
2022/12/06 11:43:22;;;;;;;20.48;9.52;;;2.60;99.90;;;;;;5096077;28;20098;-72
2022/12/06 11:45:51;;;;;;;22.77;9.27;;;2.60;99.90;;;;;;5096413;28;20101;-71
2022/12/06 11:48:28;;;;;;;24.63;10.25;;;2.60;99.90;;;;;;5079772;28;20435;-72
2022/12/06 11:50:55;;;;;;;18.52;8.77;;;2.60;99.90;;;;;;5099737;28;20103;-71
2022/12/06 11:53:57;;;;;;;19.15;8.73;;;2.60;99.90;;;;;;5098065;28;20032;-72
2022/12/06 11:56:29;;;;;;;25.17;9.52;;;2.60;99.90;;;;;;5099671;28;20102;-72
2022/12/06 11:59:21;;;;;;;21.60;9.30;;;2.60;99.90;;;;;;5099852;28;20031;-72
2022/12/06 12:01:50;;;;;;;21.80;9.23;;;2.60;99.90;;;;;;5099568;28;20020;-71
2022/12/06 12:04:30;;;;;;;19.63;9.43;;;2.60;99.90;;;;;;5098802;28;20036;-70
2022/12/06 12:07:08;;;;;;;22.25;11.20;;;2.60;99.90;;;;;;5099613;28;20024;-72
2022/12/06 12:09:48;;;;;;;22.70;9.32;;;2.60;99.90;;;;;;5081444;28;20024;-70
2022/12/06 12:12:20;;;;;;;22.98;9.88;;;2.60;99.90;;;;;;5100015;28;20047;-72
2022/12/06 12:14:56;;;;;;;20.35;10.45;;;2.60;99.90;;;;;;5099861;28;20032;-70
2022/12/06 12:17:31;;;;;;;18.02;9.07;;;2.70;99.90;;;;;;5081515;28;20020;-75
2022/12/06 12:20:06;;;;;;;21.75;9.95;;;2.70;99.90;;;;;;5099235;28;20424;-72
2022/12/06 12:22:42;;;;;;;21.92;9.70;;;2.70;99.90;;;;;;5099163;28;20039;-74
2022/12/06 12:25:26;;;;;;;17.50;9.45;;;2.70;99.90;;;;;;5081123;28;20413;-74
2022/12/06 12:27:55;;;;;;;21.58;10.10;;;2.80;99.90;;;;;;5099148;28;20028;-75
2022/12/06 12:30:37;;;;;;;25.25;11.13;;;2.80;99.90;;;;;;5099018;28;20024;-74
2022/12/06 12:33:09;;;;;;;20.05;9.52;;;2.80;99.90;;;;;;5099020;28;20020;-73
2022/12/06 12:35:39;;;;;;;17.08;8.38;;;2.80;99.90;;;;;;5099169;28;20408;-73
2022/12/06 12:38:26;;;;;;;17.08;8.82;;;2.90;99.90;;;;;;5099353;28;20032;-73
2022/12/06 12:41:11;;;;;;;16.85;8.68;;;2.90;99.90;;;;;;5098828;28;20027;-73
2022/12/06 12:43:45;;;;;;;19.38;8.18;;;2.90;99.90;;;;;;5099085;28;20032;-73
2022/12/06 12:46:19;;;;;;;17.55;7.88;;;3.00;99.90;;;;;;5080737;28;20074;-73
2022/12/06 12:48:49;;;;;;;17.38;8.45;;;3.00;99.90;;;;;;5098863;28;20023;-73
2022/12/06 12:51:32;;;;;;;16.65;8.30;;;3.10;99.90;;;;;;5080597;28;20157;-73
2022/12/06 12:54:18;;;;;;;25.45;10.35;;;3.10;99.90;;;;;;5098912;28;20073;-75
2022/12/06 12:56:45;;;;;;;16.50;8.15;;;3.10;99.90;;;;;;5098518;28;20149;-73
2022/12/06 12:59:17;;;;;;;17.88;8.45;;;3.10;99.90;;;;;;5080320;28;20424;-73
2022/12/06 13:01:47;;;;;;;15.30;8.30;;;3.20;99.90;;;;;;5097932;28;20313;-74
2022/12/06 13:04:36;;;;;;;29.00;13.18;;;3.20;99.90;;;;;;5098192;28;20048;-74
2022/12/06 13:07:23;;;;;;;16.55;7.88;;;3.30;99.90;;;;;;5080285;28;20324;-75
2022/12/06 13:10:13;;;;;;;13.85;6.82;;;3.30;99.90;;;;;;5098438;28;20024;-77
2022/12/06 13:12:53;;;;;;;14.10;7.07;;;3.20;99.90;;;;;;5098263;28;20544;-75
2022/12/06 13:15:37;;;;;;;15.07;7.95;;;3.30;99.90;;;;;;5098181;28;20032;-74
2022/12/06 13:18:26;;;;;;;13.88;7.88;;;3.30;99.90;;;;;;5098589;28;20028;-74
2022/12/06 13:21:00;;;;;;;15.70;8.35;;;3.30;99.90;;;;;;5097975;28;20480;-74
2022/12/06 13:23:35;;;;;;;14.70;8.00;;;3.30;99.90;;;;;;5099732;28;20071;-75
2022/12/06 13:26:35;;;;;;;14.57;7.82;;;3.40;99.90;;;;;;5097945;28;20111;-75
2022/12/06 13:29:25;;;;;;;15.25;8.55;;;3.30;99.90;;;;;;5098335;28;20082;-74
2022/12/06 13:31:55;;;;;;;12.25;8.18;;;3.30;99.90;;;;;;5079831;28;20043;-74
2022/12/06 13:34:33;;;;;;;13.98;7.55;;;3.30;99.90;;;;;;5097837;28;20117;-75
2022/12/06 13:37:01;;;;;;;16.45;8.88;;;3.30;99.90;;;;;;5079871;28;20399;-76
2022/12/06 13:39:32;;;;;;;19.10;8.40;;;3.30;99.90;;;;;;5098012;28;20404;-73
2022/12/06 13:42:18;;;;;;;14.85;8.07;;;3.30;99.90;;;;;;5097893;28;20077;-75
2022/12/06 13:44:53;;;;;;;16.50;8.10;;;3.30;99.90;;;;;;5098225;28;20409;-75
2022/12/06 13:47:27;;;;;;;18.07;9.27;;;3.30;99.90;;;;;;5097767;28;20066;-76
2022/12/06 13:50:01;;;;;;;16.38;8.20;;;3.30;99.90;;;;;;5097702;28;20308;-76
2022/12/06 13:52:43;;;;;;;15.40;7.75;;;3.30;99.90;;;;;;5097193;28;20035;-75
2022/12/06 13:55:27;;;;;;;13.38;7.55;;;3.20;99.90;;;;;;5079364;28;20024;-74
2022/12/06 13:57:57;;;;;;;15.52;7.50;;;3.20;99.90;;;;;;5097836;28;20024;-74